Terminal Aerodrome Forecast
Issued by NWS Wichita, KS

Home | Current Version | Previous Version | Graphics & Text | Print | Product List | Glossary On
Versions: 1 2 3 4 5 6 7 8 9 10 11 12 13
000
FTUS43 KICT 021123
TAFICT
TAF
KICT 021123Z 0212/0312 18012KT P6SM SCT100 BKN150
     FM021700 18015G22KT P6SM FEW070 SCT120
     FM030000 17012KT P6SM SKC=

USA.gov is the U.S. government's official web portal to all federal, state and local government web resources and services.